Terminal Aerodrome Forecast
Issued by NWS Sioux Falls, SD

Home | Current Version | Previous Version | Text Only | Print | Product List | Glossary On
Versions: 1 2 3 4 5 6 7 8 9 10 11 12 13 14 15 16 17 18 19
828
FTUS43 KFSD 191735
TAFFSD
TAF
KFSD 191735Z 1918/2018 02012G22KT 5SM -SN OVC015
     FM200700 01012KT 1SM -SN BKN008 OVC012
     FM201100 36012KT 3SM -SN BKN015 OVC035
     FM201400 32012G20KT 6SM BR VCSH SCT015 BKN035=

USA.gov is the U.S. government's official web portal to all federal, state and local government web resources and services.